Main page
METAR-TAF:

METAR-TAF

Airports :

Jeddah, Saudi Arabia

King Abdulaziz International Airport

latitude: 21-42N, longitude: 039-11E, elevation: 15 m

Current weather observation

The report was made 1 hour and 5 minutes ago, at 05:00 UTC
Calm wind
Temperature 29°C
Humidity 62%
Pressure 1009 hPa
Visibility 10 km or more
Few clouds at a height of 4000 ft

METAR: OEJN 240500Z 00000KT 9999 FEW040 29/21 Q1009 NOSIG

Time: 09:05 (06:05 UTC)

Forecast

The report was made 2 hours and 5 minutes ago, at 04:00 UTC
Forecast valid from 24 at 06 UTC to 25 at 12 UTC
Wind 15 kt from the West
Visibility 10 km or more
Scattered clouds at a height of 4000 ft
Becoming
from 24 at 18 UTC to 24 at 20 UTC
Wind 6 kt from the North/Northeast

TAF: OEJN 240400Z 2406/2512 26015KT 9999 SCT040 BECMG 2418/2420 02006KT

Weather observations and forecasts of more than 4000 airports (METAR and TAF reports).

The available stations are represented by yellow and red dots on the map.

Hover mouse over dot to see the name of the station.

Then click to see weather observations and forecasts.

To change the map : click on the green buttons with a black cross to zoom in, on the green button with a dash to zoom out, or on the green arrows for adjacent maps.


METAR-TAF: